Time,TemperatureF,DewpointF,PressureIn,WindDirection,WindDirectionDegrees,WindSpeedMPH,WindSpeedGustMPH,Humidity,HourlyPrecipIn,Conditions,Clouds,dailyrainin,SoftwareType,DateUTC
2013-05-10 00:01:00,53.0,50.0,30.12,SE,135,0.0,-999.0,89,-99.99,,,-99.99,,2013-05-10 07:01:00,
2013-05-10 00:11:00,53.0,50.0,30.12,SE,135,0.0,-999.0,89,-99.99,,,-99.99,,2013-05-10 07:11:00,
2013-05-10 00:22:00,53.0,50.0,30.12,SE,135,0.0,-999.0,89,-99.99,,,-99.99,,2013-05-10 07:22:00,
2013-05-10 00:31:00,53.0,50.0,30.13,SE,135,0.0,-999.0,90,-99.99,,,-99.99,,2013-05-10 07:31:00,
2013-05-10 00:42:00,53.0,50.0,30.13,SE,135,0.0,-999.0,91,-99.99,,,-99.99,,2013-05-10 07:42:00,
2013-05-10 00:52:00,53.0,50.0,30.13,SE,135,0.0,-999.0,91,-99.99,,,-99.99,,2013-05-10 07:52:00,
2013-05-10 01:02:00,53.0,50.0,30.13,NE,49,0.0,-999.0,91,-99.99,,,-99.99,,2013-05-10 08:02:00,
2013-05-10 01:12:00,53.0,50.0,30.13,NE,49,0.0,-999.0,91,-99.99,,,-99.99,,2013-05-10 08:12:00,
2013-05-10 01:21:00,52.0,49.0,30.14,NNE,17,1.0,-999.0,90,-99.99,,,-99.99,,2013-05-10 08:21:00,
2013-05-10 01:32:00,52.0,49.0,30.14,NNW,343,0.0,-999.0,89,-99.99,,,-99.99,,2013-05-10 08:32:00,
2013-05-10 01:42:00,52.0,49.0,30.14,NNW,343,0.0,-999.0,89,-99.99,,,-99.99,,2013-05-10 08:42:00,
2013-05-10 01:52:00,52.0,49.0,30.14,NNW,343,0.0,-999.0,90,-99.99,,,-99.99,,2013-05-10 08:52:00,
2013-05-10 02:01:00,51.0,49.0,30.14,NNW,343,0.0,-999.0,92,-99.99,,,-99.99,,2013-05-10 09:01:00,
2013-05-10 02:11:00,51.0,49.0,30.14,NNW,343,0.0,-999.0,92,-99.99,,,-99.99,,2013-05-10 09:11:00,
2013-05-10 02:21:00,51.0,49.0,30.14,NNW,343,0.0,-999.0,93,-99.99,,,-99.99,,2013-05-10 09:21:00,
2013-05-10 02:32:00,50.0,48.0,30.14,NNW,343,0.0,-999.0,94,-99.99,,,-99.99,,2013-05-10 09:32:00,
2013-05-10 02:42:00,50.0,48.0,30.14,NNW,343,0.0,-999.0,94,-99.99,,,-99.99,,2013-05-10 09:42:00,
2013-05-10 02:52:00,50.0,48.0,30.14,NNW,343,0.0,-999.0,93,-99.99,,,-99.99,,2013-05-10 09:52:00,
2013-05-10 03:02:00,50.0,48.0,30.14,NNW,343,0.0,-999.0,94,-99.99,,,-99.99,,2013-05-10 10:02:00,
2013-05-10 03:12:00,50.0,48.0,30.14,NNW,343,0.0,-999.0,94,-99.99,,,-99.99,,2013-05-10 10:12:00,
2013-05-10 03:23:00,49.0,47.0,30.14,NNW,343,0.0,-999.0,94,-99.99,,,-99.99,,2013-05-10 10:23:00,
2013-05-10 03:32:00,49.0,47.0,30.14,NNW,343,0.0,-999.0,94,-99.99,,,-99.99,,2013-05-10 10:32:00,
2013-05-10 03:41:00,49.0,47.0,30.14,NNW,343,0.0,-999.0,94,-99.99,,,-99.99,,2013-05-10 10:41:00,
2013-05-10 03:52:00,49.0,47.0,30.15,NNW,343,0.0,-999.0,94,-99.99,,,-99.99,,2013-05-10 10:52:00,
2013-05-10 04:02:00,49.0,47.0,30.14,NNW,343,0.0,-999.0,94,-99.99,,,-99.99,,2013-05-10 11:02:00,
2013-05-10 04:12:00,49.0,47.0,30.14,NNW,343,0.0,-999.0,94,-99.99,,,-99.99,,2013-05-10 11:12:00,
2013-05-10 04:21:00,48.0,47.0,30.15,NNW,343,0.0,-999.0,95,-99.99,,,-99.99,,2013-05-10 11:21:00,
2013-05-10 04:32:00,48.0,46.0,30.16,NNW,343,0.0,-999.0,94,-99.99,,,-99.99,,2013-05-10 11:32:00,
2013-05-10 04:42:00,48.0,46.0,30.16,NNW,343,0.0,-999.0,94,-99.99,,,-99.99,,2013-05-10 11:42:00,
2013-05-10 04:51:00,48.0,47.0,30.15,NNW,343,0.0,-999.0,95,-99.99,,,-99.99,,2013-05-10 11:51:00,
2013-05-10 05:01:00,48.0,47.0,30.15,NNW,343,0.0,-999.0,96,-99.99,,,-99.99,,2013-05-10 12:01:00,
2013-05-10 05:11:00,48.0,47.0,30.15,NNW,343,0.0,-999.0,96,-99.99,,,-99.99,,2013-05-10 12:11:00,
2013-05-10 05:21:00,48.0,47.0,30.14,NNW,343,0.0,-999.0,96,-99.99,,,-99.99,,2013-05-10 12:21:00,
2013-05-10 05:32:00,48.0,47.0,30.14,NNW,343,0.0,-999.0,96,-99.99,,,-99.99,,2013-05-10 12:32:00,
2013-05-10 05:41:00,48.0,47.0,30.14,NNW,343,0.0,-999.0,96,-99.99,,,-99.99,,2013-05-10 12:41:00,
2013-05-10 05:51:00,47.0,46.0,30.14,NNW,343,0.0,-999.0,96,-99.99,,,-99.99,,2013-05-10 12:51:00,
2013-05-10 06:01:00,47.0,46.0,30.14,NNW,343,0.0,-999.0,96,-99.99,,,-99.99,,2013-05-10 13:01:00,
2013-05-10 06:11:00,47.0,46.0,30.14,NNW,343,0.0,-999.0,96,-99.99,,,-99.99,,2013-05-10 13:11:00,
2013-05-10 06:21:00,47.0,46.0,30.14,NNW,343,0.0,-999.0,96,-99.99,,,-99.99,,2013-05-10 13:21:00,
2013-05-10 06:31:00,47.0,46.0,30.14,NNW,343,0.0,-999.0,96,-99.99,,,-99.99,,2013-05-10 13:31:00,
2013-05-10 06:41:00,47.0,46.0,30.14,NNW,343,0.0,-999.0,96,-99.99,,,-99.99,,2013-05-10 13:41:00,
2013-05-10 06:52:00,47.0,46.0,30.14,NNW,343,0.0,-999.0,97,-99.99,,,-99.99,,2013-05-10 13:52:00,
2013-05-10 07:01:00,48.0,47.0,30.15,NNW,343,0.0,-999.0,97,-99.99,,,-99.99,,2013-05-10 14:01:00,
2013-05-10 07:11:00,48.0,47.0,30.15,NNW,343,0.0,-999.0,97,-99.99,,,-99.99,,2013-05-10 14:11:00,
2013-05-10 07:21:00,48.0,47.0,30.15,NNW,343,1.0,-999.0,96,-99.99,,,-99.99,,2013-05-10 14:21:00,
2013-05-10 07:32:00,49.0,48.0,30.16,North,8,2.0,-999.0,95,-99.99,,,-99.99,,2013-05-10 14:32:00,
2013-05-10 07:41:00,49.0,48.0,30.16,North,8,2.0,-999.0,95,-99.99,,,-99.99,,2013-05-10 14:41:00,
2013-05-10 07:51:00,50.0,48.0,30.16,NNW,345,2.0,-999.0,92,-99.99,,,-99.99,,2013-05-10 14:51:00,
2013-05-10 08:01:00,50.0,47.0,30.16,NNW,346,0.0,-999.0,91,-99.99,,,-99.99,,2013-05-10 15:01:00,
2013-05-10 08:20:00,-999.0,-99.9,30.16,NNW,346,0.0,-999.0,91,-99.99,,,-99.99,,2013-05-10 15:20:00,
2013-05-10 08:32:00,52.0,49.0,30.16,NNW,346,0.0,-999.0,89,-99.99,,,-99.99,,2013-05-10 15:32:00,
2013-05-10 08:42:00,53.0,49.0,30.16,North,350,0.0,-999.0,87,-99.99,,,-99.99,,2013-05-10 15:42:00,
2013-05-10 08:52:00,53.0,49.0,30.16,North,350,0.0,-999.0,87,-99.99,,,-99.99,,2013-05-10 15:52:00,
2013-05-10 09:02:00,55.0,52.0,30.16,ESE,103,0.0,-999.0,88,-99.99,,,-99.99,,2013-05-10 16:02:00,
2013-05-10 09:12:00,55.0,52.0,30.16,ESE,103,0.0,-999.0,88,-99.99,,,-99.99,,2013-05-10 16:12:00,
2013-05-10 09:23:00,56.0,51.0,30.16,SE,141,1.0,-999.0,84,-99.99,,,-99.99,,2013-05-10 16:23:00,
2013-05-10 09:32:00,57.0,52.0,30.16,SSE,159,1.0,-999.0,83,-99.99,,,-99.99,,2013-05-10 16:32:00,
2013-05-10 09:42:00,57.0,51.0,30.16,ESE,119,1.0,-999.0,80,-99.99,,,-99.99,,2013-05-10 16:42:00,
2013-05-10 09:52:00,57.0,51.0,30.16,ESE,119,1.0,-999.0,80,-99.99,,,-99.99,,2013-05-10 16:52:00,
2013-05-10 10:02:00,58.0,52.0,30.16,SSE,153,1.0,-999.0,79,-99.99,,,-99.99,,2013-05-10 17:02:00,
2013-05-10 10:12:00,58.0,52.0,30.16,SSE,153,1.0,-999.0,79,-99.99,,,-99.99,,2013-05-10 17:12:00,
2013-05-10 10:21:00,60.0,52.0,30.16,ESE,121,0.0,-999.0,76,-99.99,,,-99.99,,2013-05-10 17:21:00,
2013-05-10 10:32:00,60.0,52.0,30.16,ESE,112,1.0,-999.0,75,-99.99,,,-99.99,,2013-05-10 17:32:00,
2013-05-10 10:42:00,61.0,52.0,30.16,SE,134,0.0,-999.0,73,-99.99,,,-99.99,,2013-05-10 17:42:00,
2013-05-10 10:52:00,61.0,52.0,30.16,SE,134,0.0,-999.0,73,-99.99,,,-99.99,,2013-05-10 17:52:00,
2013-05-10 11:10:00,-999.0,-99.9,30.15,ESE,115,1.0,-999.0,72,-99.99,,,-99.99,,2013-05-10 18:10:00,
2013-05-10 11:21:00,64.0,53.0,30.15,North,3,0.0,-999.0,68,-99.99,,,-99.99,,2013-05-10 18:21:00,
2013-05-10 11:34:00,66.0,55.0,30.15,SE,127,0.0,-999.0,67,-99.99,,,-99.99,,2013-05-10 18:34:00,
2013-05-10 11:43:00,67.0,55.0,30.15,South,172,1.0,-999.0,65,-99.99,,,-99.99,,2013-05-10 18:43:00,
2013-05-10 11:54:00,67.0,55.0,30.15,South,172,1.0,-999.0,65,-99.99,,,-99.99,,2013-05-10 18:54:00,
2013-05-10 12:02:00,68.0,55.0,30.15,SSE,147,3.0,-999.0,63,-99.99,,,-99.99,,2013-05-10 19:02:00,
2013-05-10 12:11:00,68.0,55.0,30.15,SSE,147,3.0,-999.0,63,-99.99,,,-99.99,,2013-05-10 19:11:00,
2013-05-10 12:21:00,68.0,57.0,30.14,SE,127,2.0,-999.0,67,-99.99,,,-99.99,,2013-05-10 19:21:00,
2013-05-10 12:32:00,70.0,57.0,30.14,SSE,165,2.0,-999.0,64,-99.99,,,-99.99,,2013-05-10 19:32:00,
2013-05-10 12:42:00,70.0,57.0,30.14,SSE,165,2.0,-999.0,64,-99.99,,,-99.99,,2013-05-10 19:42:00,
2013-05-10 12:52:00,70.0,56.0,30.14,SSE,152,2.0,-999.0,62,-99.99,,,-99.99,,2013-05-10 19:52:00,
2013-05-10 13:01:00,71.0,57.0,30.13,ESE,123,2.0,-999.0,61,-99.99,,,-99.99,,2013-05-10 20:01:00,
2013-05-10 13:11:00,71.0,57.0,30.13,ESE,123,2.0,-999.0,61,-99.99,,,-99.99,,2013-05-10 20:11:00,
2013-05-10 13:21:00,72.0,57.0,30.13,SE,146,4.0,-999.0,60,-99.99,,,-99.99,,2013-05-10 20:21:00,
2013-05-10 13:31:00,73.0,57.0,30.12,ENE,76,2.0,-999.0,58,-99.99,,,-99.99,,2013-05-10 20:31:00,
2013-05-10 13:41:00,73.0,57.0,30.12,ENE,76,2.0,-999.0,58,-99.99,,,-99.99,,2013-05-10 20:41:00,
2013-05-10 13:52:00,74.0,57.0,30.11,SE,135,1.0,-999.0,56,-99.99,,,-99.99,,2013-05-10 20:52:00,
2013-05-10 14:01:00,75.0,57.0,30.11,NNE,27,1.0,-999.0,53,-99.99,,,-99.99,,2013-05-10 21:01:00,
2013-05-10 14:11:00,75.0,57.0,30.11,NNE,27,1.0,-999.0,53,-99.99,,,-99.99,,2013-05-10 21:11:00,
2013-05-10 14:24:00,75.0,58.0,30.11,ESE,119,1.0,-999.0,55,-99.99,,,-99.99,,2013-05-10 21:24:00,
2013-05-10 14:32:00,74.0,57.0,30.11,SE,129,2.0,-999.0,56,-99.99,,,-99.99,,2013-05-10 21:32:00,
2013-05-10 14:42:00,74.0,57.0,30.11,SE,129,2.0,-999.0,56,-99.99,,,-99.99,,2013-05-10 21:42:00,
2013-05-10 14:52:00,75.0,59.0,30.11,East,94,1.0,-999.0,57,-99.99,,,-99.99,,2013-05-10 21:52:00,
2013-05-10 15:02:00,76.0,58.0,30.11,ENE,59,2.0,-999.0,54,-99.99,,,-99.99,,2013-05-10 22:02:00,
2013-05-10 15:12:00,76.0,58.0,30.11,ENE,59,2.0,-999.0,54,-99.99,,,-99.99,,2013-05-10 22:12:00,
2013-05-10 15:22:00,75.0,57.0,30.10,ESE,121,3.0,-999.0,54,-99.99,,,-99.99,,2013-05-10 22:22:00,
2013-05-10 15:32:00,75.0,57.0,30.10,SE,146,1.0,-999.0,54,-99.99,,,-99.99,,2013-05-10 22:32:00,
2013-05-10 15:42:00,76.0,58.0,30.10,NE,43,1.0,-999.0,53,-99.99,,,-99.99,,2013-05-10 22:42:00,
2013-05-10 15:52:00,76.0,58.0,30.10,NE,43,1.0,-999.0,53,-99.99,,,-99.99,,2013-05-10 22:52:00,
2013-05-10 16:02:00,76.0,57.0,30.09,South,176,2.0,-999.0,52,-99.99,,,-99.99,,2013-05-10 23:02:00,
2013-05-10 16:12:00,76.0,57.0,30.09,South,176,2.0,-999.0,52,-99.99,,,-99.99,,2013-05-10 23:12:00,
2013-05-10 16:22:00,76.0,58.0,30.09,South,188,1.0,-999.0,53,-99.99,,,-99.99,,2013-05-10 23:22:00,
2013-05-10 16:32:00,76.0,58.0,30.09,ESE,123,2.0,-999.0,54,-99.99,,,-99.99,,2013-05-10 23:32:00,
2013-05-10 16:41:00,76.0,58.0,30.09,ESE,123,2.0,-999.0,54,-99.99,,,-99.99,,2013-05-10 23:41:00,
2013-05-10 16:52:00,75.0,58.0,30.08,East,82,1.0,-999.0,55,-99.99,,,-99.99,,2013-05-10 23:52:00,
2013-05-10 17:01:00,75.0,58.0,30.08,SE,138,2.0,-999.0,55,-99.99,,,-99.99,,2013-05-11 00:01:00,
2013-05-10 17:11:00,75.0,58.0,30.08,SE,138,2.0,-999.0,55,-99.99,,,-99.99,,2013-05-11 00:11:00,
2013-05-10 17:21:00,75.0,58.0,30.08,ESE,123,1.0,-999.0,55,-99.99,,,-99.99,,2013-05-11 00:21:00,
2013-05-10 17:32:00,75.0,58.0,30.08,SE,130,1.0,-999.0,55,-99.99,,,-99.99,,2013-05-11 00:32:00,
2013-05-10 17:42:00,75.0,58.0,30.08,SE,130,1.0,-999.0,55,-99.99,,,-99.99,,2013-05-11 00:42:00,
2013-05-10 17:51:00,75.0,57.0,30.08,NE,38,1.0,-999.0,53,-99.99,,,-99.99,,2013-05-11 00:51:00,
2013-05-10 18:01:00,74.0,56.0,30.08,SE,136,1.0,-999.0,54,-99.99,,,-99.99,,2013-05-11 01:01:00,
2013-05-10 18:11:00,74.0,56.0,30.08,SE,136,1.0,-999.0,54,-99.99,,,-99.99,,2013-05-11 01:11:00,
2013-05-10 18:21:00,74.0,57.0,30.08,SSE,152,1.0,-999.0,55,-99.99,,,-99.99,,2013-05-11 01:21:00,
2013-05-10 18:31:00,73.0,56.0,30.07,SE,125,1.0,-999.0,56,-99.99,,,-99.99,,2013-05-11 01:31:00,
2013-05-10 18:42:00,73.0,56.0,30.07,SE,125,1.0,-999.0,56,-99.99,,,-99.99,,2013-05-11 01:42:00,
2013-05-10 18:52:00,73.0,56.0,30.07,SE,128,0.0,-999.0,55,-99.99,,,-99.99,,2013-05-11 01:52:00,
2013-05-10 19:02:00,73.0,57.0,30.07,SE,129,0.0,-999.0,57,-99.99,,,-99.99,,2013-05-11 02:02:00,
2013-05-10 19:11:00,73.0,57.0,30.07,SE,129,0.0,-999.0,57,-99.99,,,-99.99,,2013-05-11 02:11:00,
2013-05-10 19:21:00,72.0,57.0,30.07,SE,129,0.0,-999.0,59,-99.99,,,-99.99,,2013-05-11 02:21:00,
2013-05-10 19:32:00,72.0,56.0,30.07,ESE,122,0.0,-999.0,57,-99.99,,,-99.99,,2013-05-11 02:32:00,
2013-05-10 19:42:00,72.0,56.0,30.07,ESE,122,0.0,-999.0,57,-99.99,,,-99.99,,2013-05-11 02:42:00,
2013-05-10 19:51:00,71.0,55.0,30.07,NNE,17,0.0,-999.0,58,-99.99,,,-99.99,,2013-05-11 02:51:00,
2013-05-10 20:01:00,70.0,54.0,30.07,NNE,20,1.0,-999.0,56,-99.99,,,-99.99,,2013-05-11 03:01:00,
2013-05-10 20:11:00,70.0,54.0,30.07,NNE,20,1.0,-999.0,56,-99.99,,,-99.99,,2013-05-11 03:11:00,
2013-05-10 20:21:00,69.0,53.0,30.08,NNE,15,0.0,-999.0,57,-99.99,,,-99.99,,2013-05-11 03:21:00,
2013-05-10 20:32:00,68.0,52.0,30.09,North,353,1.0,-999.0,56,-99.99,,,-99.99,,2013-05-11 03:32:00,
2013-05-10 20:42:00,68.0,52.0,30.09,North,353,1.0,-999.0,56,-99.99,,,-99.99,,2013-05-11 03:42:00,
2013-05-10 20:53:00,67.0,51.0,30.09,North,353,0.0,-999.0,56,-99.99,,,-99.99,,2013-05-11 03:53:00,
2013-05-10 21:02:00,66.0,50.0,30.09,North,353,0.0,-999.0,57,-99.99,,,-99.99,,2013-05-11 04:02:00,
2013-05-10 21:12:00,66.0,50.0,30.09,North,353,0.0,-999.0,57,-99.99,,,-99.99,,2013-05-11 04:12:00,
2013-05-10 21:23:00,65.0,50.0,30.09,North,353,0.0,-999.0,59,-99.99,,,-99.99,,2013-05-11 04:23:00,
2013-05-10 21:33:00,65.0,49.0,30.09,North,353,0.0,-999.0,57,-99.99,,,-99.99,,2013-05-11 04:33:00,
2013-05-10 21:43:00,64.0,50.0,30.10,North,353,0.0,-999.0,60,-99.99,,,-99.99,,2013-05-11 04:43:00,
2013-05-10 21:52:00,64.0,50.0,30.10,North,353,0.0,-999.0,60,-99.99,,,-99.99,,2013-05-11 04:52:00,
2013-05-10 22:02:00,64.0,50.0,30.10,North,353,0.0,-999.0,60,-99.99,,,-99.99,,2013-05-11 05:02:00,
2013-05-10 22:11:00,64.0,50.0,30.10,North,353,0.0,-999.0,60,-99.99,,,-99.99,,2013-05-11 05:11:00,
2013-05-10 22:21:00,63.0,49.0,30.10,North,353,0.0,-999.0,61,-99.99,,,-99.99,,2013-05-11 05:21:00,
2013-05-10 22:32:00,62.0,50.0,30.10,North,353,0.0,-999.0,65,-99.99,,,-99.99,,2013-05-11 05:32:00,
2013-05-10 22:42:00,62.0,50.0,30.10,North,353,0.0,-999.0,65,-99.99,,,-99.99,,2013-05-11 05:42:00,
2013-05-10 22:52:00,61.0,51.0,30.10,North,353,0.0,-999.0,69,-99.99,,,-99.99,,2013-05-11 05:52:00,
2013-05-10 23:02:00,60.0,51.0,30.11,North,353,0.0,-999.0,71,-99.99,,,-99.99,,2013-05-11 06:02:00,
2013-05-10 23:12:00,60.0,51.0,30.11,North,353,0.0,-999.0,71,-99.99,,,-99.99,,2013-05-11 06:12:00,
2013-05-10 23:21:00,59.0,51.0,30.11,NW,324,1.0,-999.0,74,-99.99,,,-99.99,,2013-05-11 06:21:00,
2013-05-10 23:32:00,59.0,50.0,30.11,NW,324,0.0,-999.0,73,-99.99,,,-99.99,,2013-05-11 06:32:00,
2013-05-10 23:42:00,59.0,50.0,30.11,NW,324,0.0,-999.0,72,-99.99,,,-99.99,,2013-05-11 06:42:00,
2013-05-10 23:52:00,59.0,50.0,30.11,NW,324,0.0,-999.0,72,-99.99,,,-99.99,,2013-05-11 06:52:00,